sensor_id;sensor_type;location;lat;lon;timestamp;temperature;humidity
49765;DHT22;35657;51.204;-4.130;2023-08-08T00:01:07;17.00;99.90
49765;DHT22;35657;51.204;-4.130;2023-08-08T00:03:33;17.00;99.90
49765;DHT22;35657;51.204;-4.130;2023-08-08T00:06:00;16.90;99.90
49765;DHT22;35657;51.204;-4.130;2023-08-08T00:08:25;16.80;99.90
49765;DHT22;35657;51.204;-4.130;2023-08-08T00:10:51;16.70;99.90
49765;DHT22;35657;51.204;-4.130;2023-08-08T00:13:17;16.70;99.90
49765;DHT22;35657;51.204;-4.130;2023-08-08T00:15:43;16.70;99.90
49765;DHT22;35657;51.204;-4.130;2023-08-08T00:18:08;16.70;99.90
49765;DHT22;35657;51.204;-4.130;2023-08-08T00:20:34;16.70;99.90
49765;DHT22;35657;51.204;-4.130;2023-08-08T00:23:00;16.60;99.90
49765;DHT22;35657;51.204;-4.130;2023-08-08T00:25:26;16.60;99.90
49765;DHT22;35657;51.204;-4.130;2023-08-08T00:27:52;16.60;99.90
49765;DHT22;35657;51.204;-4.130;2023-08-08T00:30:17;16.60;99.90
49765;DHT22;35657;51.204;-4.130;2023-08-08T00:32:43;16.60;99.90
49765;DHT22;35657;51.204;-4.130;2023-08-08T00:35:09;16.70;99.90
49765;DHT22;35657;51.204;-4.130;2023-08-08T00:37:35;16.70;99.90
49765;DHT22;35657;51.204;-4.130;2023-08-08T00:40:00;16.70;99.90
49765;DHT22;35657;51.204;-4.130;2023-08-08T00:42:26;16.70;99.90
49765;DHT22;35657;51.204;-4.130;2023-08-08T00:44:52;16.80;99.90
49765;DHT22;35657;51.204;-4.130;2023-08-08T00:47:17;16.80;99.90
49765;DHT22;35657;51.204;-4.130;2023-08-08T00:49:44;16.70;99.90
49765;DHT22;35657;51.204;-4.130;2023-08-08T00:52:12;16.70;99.90
49765;DHT22;35657;51.204;-4.130;2023-08-08T00:54:39;16.60;99.90
49765;DHT22;35657;51.204;-4.130;2023-08-08T00:57:05;16.60;99.90
49765;DHT22;35657;51.204;-4.130;2023-08-08T00:59:31;16.60;99.90
49765;DHT22;35657;51.204;-4.130;2023-08-08T01:01:58;16.50;99.90
49765;DHT22;35657;51.204;-4.130;2023-08-08T01:04:26;16.50;99.90
49765;DHT22;35657;51.204;-4.130;2023-08-08T01:07:01;16.50;99.90
49765;DHT22;35657;51.204;-4.130;2023-08-08T01:10:14;16.50;99.90
49765;DHT22;35657;51.204;-4.130;2023-08-08T01:12:22;16.50;99.90
49765;DHT22;35657;51.204;-4.130;2023-08-08T01:14:49;16.40;99.90
49765;DHT22;35657;51.204;-4.130;2023-08-08T01:17:15;16.50;99.90
49765;DHT22;35657;51.204;-4.130;2023-08-08T01:19:41;16.50;99.90
49765;DHT22;35657;51.204;-4.130;2023-08-08T01:22:22;16.60;99.90
49765;DHT22;35657;51.204;-4.130;2023-08-08T01:24:49;16.60;99.90
49765;DHT22;35657;51.204;-4.130;2023-08-08T01:27:15;16.70;99.90
49765;DHT22;35657;51.204;-4.130;2023-08-08T01:29:42;16.70;99.90
49765;DHT22;35657;51.204;-4.130;2023-08-08T01:32:07;16.60;99.90
49765;DHT22;35657;51.204;-4.130;2023-08-08T01:34:35;16.50;99.90
49765;DHT22;35657;51.204;-4.130;2023-08-08T01:37:15;16.50;99.90
49765;DHT22;35657;51.204;-4.130;2023-08-08T01:39:44;16.50;99.90
49765;DHT22;35657;51.204;-4.130;2023-08-08T01:42:11;16.50;99.90
49765;DHT22;35657;51.204;-4.130;2023-08-08T01:44:39;16.50;99.90
49765;DHT22;35657;51.204;-4.130;2023-08-08T01:47:06;16.40;99.90
49765;DHT22;35657;51.204;-4.130;2023-08-08T01:49:33;16.40;99.90
49765;DHT22;35657;51.204;-4.130;2023-08-08T01:51:59;16.40;99.90
49765;DHT22;35657;51.204;-4.130;2023-08-08T01:54:24;16.40;99.90
49765;DHT22;35657;51.204;-4.130;2023-08-08T01:56:50;16.40;99.90
49765;DHT22;35657;51.204;-4.130;2023-08-08T01:59:16;16.40;99.90
49765;DHT22;35657;51.204;-4.130;2023-08-08T02:01:41;16.40;99.90
49765;DHT22;35657;51.204;-4.130;2023-08-08T02:04:07;16.50;99.90
49765;DHT22;35657;51.204;-4.130;2023-08-08T02:06:33;16.50;99.90
49765;DHT22;35657;51.204;-4.130;2023-08-08T02:08:59;16.50;99.90
49765;DHT22;35657;51.204;-4.130;2023-08-08T02:11:25;16.60;99.90
49765;DHT22;35657;51.204;-4.130;2023-08-08T02:13:50;16.60;99.90
49765;DHT22;35657;51.204;-4.130;2023-08-08T02:16:16;16.60;99.90
49765;DHT22;35657;51.204;-4.130;2023-08-08T02:18:42;16.50;99.90
49765;DHT22;35657;51.204;-4.130;2023-08-08T02:21:08;16.40;99.90
49765;DHT22;35657;51.204;-4.130;2023-08-08T02:23:34;16.40;99.90
49765;DHT22;35657;51.204;-4.130;2023-08-08T02:26:00;16.40;99.90
49765;DHT22;35657;51.204;-4.130;2023-08-08T02:28:26;16.30;99.90
49765;DHT22;35657;51.204;-4.130;2023-08-08T02:30:52;16.30;99.90
49765;DHT22;35657;51.204;-4.130;2023-08-08T02:33:18;16.30;99.90
49765;DHT22;35657;51.204;-4.130;2023-08-08T02:35:44;16.30;99.90
49765;DHT22;35657;51.204;-4.130;2023-08-08T02:38:10;16.30;99.90
49765;DHT22;35657;51.204;-4.130;2023-08-08T02:40:36;16.30;99.90
49765;DHT22;35657;51.204;-4.130;2023-08-08T02:43:04;16.30;99.90
49765;DHT22;35657;51.204;-4.130;2023-08-08T02:45:30;16.30;99.90
49765;DHT22;35657;51.204;-4.130;2023-08-08T02:47:55;16.40;99.90
49765;DHT22;35657;51.204;-4.130;2023-08-08T02:50:21;16.40;99.90
49765;DHT22;35657;51.204;-4.130;2023-08-08T02:52:47;16.50;99.90
49765;DHT22;35657;51.204;-4.130;2023-08-08T02:55:13;16.50;99.90
49765;DHT22;35657;51.204;-4.130;2023-08-08T02:57:39;16.50;99.90
49765;DHT22;35657;51.204;-4.130;2023-08-08T03:00:05;16.50;99.90
49765;DHT22;35657;51.204;-4.130;2023-08-08T03:02:33;16.40;99.90
49765;DHT22;35657;51.204;-4.130;2023-08-08T03:04:59;16.40;99.90
49765;DHT22;35657;51.204;-4.130;2023-08-08T03:07:25;16.30;99.90
49765;DHT22;35657;51.204;-4.130;2023-08-08T03:09:51;16.30;99.90
49765;DHT22;35657;51.204;-4.130;2023-08-08T03:12:16;16.30;99.90
49765;DHT22;35657;51.204;-4.130;2023-08-08T03:14:42;16.30;99.90
49765;DHT22;35657;51.204;-4.130;2023-08-08T03:17:08;16.30;99.90
49765;DHT22;35657;51.204;-4.130;2023-08-08T03:19:34;16.20;99.90
49765;DHT22;35657;51.204;-4.130;2023-08-08T03:21:59;16.20;99.90
49765;DHT22;35657;51.204;-4.130;2023-08-08T03:24:25;16.20;99.90
49765;DHT22;35657;51.204;-4.130;2023-08-08T03:26:51;16.20;99.90
49765;DHT22;35657;51.204;-4.130;2023-08-08T03:29:17;16.20;99.90
49765;DHT22;35657;51.204;-4.130;2023-08-08T03:31:42;16.30;99.90
49765;DHT22;35657;51.204;-4.130;2023-08-08T03:34:08;16.30;99.90
49765;DHT22;35657;51.204;-4.130;2023-08-08T03:36:34;16.40;99.90
49765;DHT22;35657;51.204;-4.130;2023-08-08T03:38:59;16.40;99.90
49765;DHT22;35657;51.204;-4.130;2023-08-08T03:41:25;16.50;99.90
49765;DHT22;35657;51.204;-4.130;2023-08-08T03:43:51;16.40;99.90
49765;DHT22;35657;51.204;-4.130;2023-08-08T03:46:17;16.40;99.90
49765;DHT22;35657;51.204;-4.130;2023-08-08T03:48:42;16.30;99.90
49765;DHT22;35657;51.204;-4.130;2023-08-08T03:51:08;16.30;99.90
49765;DHT22;35657;51.204;-4.130;2023-08-08T03:53:34;16.30;99.90
49765;DHT22;35657;51.204;-4.130;2023-08-08T03:55:59;16.20;99.90
49765;DHT22;35657;51.204;-4.130;2023-08-08T03:58:25;16.20;99.90
49765;DHT22;35657;51.204;-4.130;2023-08-08T04:00:51;16.20;99.90
49765;DHT22;35657;51.204;-4.130;2023-08-08T04:03:18;16.20;99.90
49765;DHT22;35657;51.204;-4.130;2023-08-08T04:05:47;16.20;99.90
49765;DHT22;35657;51.204;-4.130;2023-08-08T04:08:14;16.20;99.90
49765;DHT22;35657;51.204;-4.130;2023-08-08T04:10:40;16.20;99.90
49765;DHT22;35657;51.204;-4.130;2023-08-08T04:13:05;16.20;99.90
49765;DHT22;35657;51.204;-4.130;2023-08-08T04:15:31;16.30;99.90
49765;DHT22;35657;51.204;-4.130;2023-08-08T04:17:57;16.30;99.90
49765;DHT22;35657;51.204;-4.130;2023-08-08T04:20:22;16.40;99.90
49765;DHT22;35657;51.204;-4.130;2023-08-08T04:22:48;16.40;99.90
49765;DHT22;35657;51.204;-4.130;2023-08-08T04:25:15;16.50;99.90
49765;DHT22;35657;51.204;-4.130;2023-08-08T04:27:40;16.50;99.90
49765;DHT22;35657;51.204;-4.130;2023-08-08T04:30:07;16.40;99.90
49765;DHT22;35657;51.204;-4.130;2023-08-08T04:32:32;16.30;99.90
49765;DHT22;35657;51.204;-4.130;2023-08-08T04:34:58;16.30;99.90
49765;DHT22;35657;51.204;-4.130;2023-08-08T04:37:24;16.20;99.90
49765;DHT22;35657;51.204;-4.130;2023-08-08T04:39:50;16.20;99.90
49765;DHT22;35657;51.204;-4.130;2023-08-08T04:42:16;16.20;99.90
49765;DHT22;35657;51.204;-4.130;2023-08-08T04:44:41;16.20;99.90
49765;DHT22;35657;51.204;-4.130;2023-08-08T04:47:07;16.20;99.90
49765;DHT22;35657;51.204;-4.130;2023-08-08T04:49:33;16.20;99.90
49765;DHT22;35657;51.204;-4.130;2023-08-08T04:51:59;16.20;99.90
49765;DHT22;35657;51.204;-4.130;2023-08-08T04:54:24;16.20;99.90
49765;DHT22;35657;51.204;-4.130;2023-08-08T04:56:50;16.20;99.90
49765;DHT22;35657;51.204;-4.130;2023-08-08T04:59:16;16.20;99.90
49765;DHT22;35657;51.204;-4.130;2023-08-08T05:01:42;16.20;99.90
49765;DHT22;35657;51.204;-4.130;2023-08-08T05:04:08;16.30;99.90
49765;DHT22;35657;51.204;-4.130;2023-08-08T05:06:34;16.30;99.90
49765;DHT22;35657;51.204;-4.130;2023-08-08T05:08:59;16.40;99.90
49765;DHT22;35657;51.204;-4.130;2023-08-08T05:11:25;16.40;99.90
49765;DHT22;35657;51.204;-4.130;2023-08-08T05:13:51;16.30;99.90
49765;DHT22;35657;51.204;-4.130;2023-08-08T05:16:17;16.30;99.90
49765;DHT22;35657;51.204;-4.130;2023-08-08T05:18:43;16.20;99.90
49765;DHT22;35657;51.204;-4.130;2023-08-08T05:21:11;16.20;99.90
49765;DHT22;35657;51.204;-4.130;2023-08-08T05:23:36;16.20;99.90
49765;DHT22;35657;51.204;-4.130;2023-08-08T05:26:03;16.20;99.90
49765;DHT22;35657;51.204;-4.130;2023-08-08T05:28:29;16.20;99.90
49765;DHT22;35657;51.204;-4.130;2023-08-08T05:30:55;16.20;99.90
49765;DHT22;35657;51.204;-4.130;2023-08-08T05:33:22;16.20;99.90
49765;DHT22;35657;51.204;-4.130;2023-08-08T05:35:47;16.20;99.90
49765;DHT22;35657;51.204;-4.130;2023-08-08T05:38:13;16.10;99.90
49765;DHT22;35657;51.204;-4.130;2023-08-08T05:40:39;16.20;99.90
49765;DHT22;35657;51.204;-4.130;2023-08-08T05:43:04;16.20;99.90
49765;DHT22;35657;51.204;-4.130;2023-08-08T05:45:30;16.20;99.90
49765;DHT22;35657;51.204;-4.130;2023-08-08T05:47:57;16.30;99.90
49765;DHT22;35657;51.204;-4.130;2023-08-08T05:50:23;16.30;99.90
49765;DHT22;35657;51.204;-4.130;2023-08-08T05:52:48;16.40;99.90
49765;DHT22;35657;51.204;-4.130;2023-08-08T05:55:14;16.40;99.90
49765;DHT22;35657;51.204;-4.130;2023-08-08T05:57:40;16.40;99.90
49765;DHT22;35657;51.204;-4.130;2023-08-08T06:00:06;16.30;99.90
49765;DHT22;35657;51.204;-4.130;2023-08-08T06:02:36;16.30;99.90
49765;DHT22;35657;51.204;-4.130;2023-08-08T06:05:01;16.30;99.90
49765;DHT22;35657;51.204;-4.130;2023-08-08T06:07:27;16.20;99.90
49765;DHT22;35657;51.204;-4.130;2023-08-08T06:09:53;16.20;99.90
49765;DHT22;35657;51.204;-4.130;2023-08-08T06:12:19;16.20;99.90
49765;DHT22;35657;51.204;-4.130;2023-08-08T06:14:45;16.20;99.90
49765;DHT22;35657;51.204;-4.130;2023-08-08T06:17:10;16.20;99.90
49765;DHT22;35657;51.204;-4.130;2023-08-08T06:19:36;16.20;99.90
49765;DHT22;35657;51.204;-4.130;2023-08-08T06:22:02;16.20;99.90
49765;DHT22;35657;51.204;-4.130;2023-08-08T06:24:28;16.20;99.90
49765;DHT22;35657;51.204;-4.130;2023-08-08T06:26:54;16.20;99.90
49765;DHT22;35657;51.204;-4.130;2023-08-08T06:29:20;16.30;99.90
49765;DHT22;35657;51.204;-4.130;2023-08-08T06:31:45;16.30;99.90
49765;DHT22;35657;51.204;-4.130;2023-08-08T06:34:11;16.30;99.90
49765;DHT22;35657;51.204;-4.130;2023-08-08T06:36:37;16.30;99.90
49765;DHT22;35657;51.204;-4.130;2023-08-08T06:39:02;16.30;99.90
49765;DHT22;35657;51.204;-4.130;2023-08-08T06:41:28;16.30;99.90
49765;DHT22;35657;51.204;-4.130;2023-08-08T06:43:54;16.30;99.90
49765;DHT22;35657;51.204;-4.130;2023-08-08T06:46:20;16.30;99.90
49765;DHT22;35657;51.204;-4.130;2023-08-08T06:48:46;16.30;99.90
49765;DHT22;35657;51.204;-4.130;2023-08-08T06:51:12;16.30;99.90
49765;DHT22;35657;51.204;-4.130;2023-08-08T06:53:38;16.30;99.90
49765;DHT22;35657;51.204;-4.130;2023-08-08T06:56:04;16.30;99.90
49765;DHT22;35657;51.204;-4.130;2023-08-08T06:58:29;16.40;99.90
49765;DHT22;35657;51.204;-4.130;2023-08-08T07:00:55;16.60;99.90
49765;DHT22;35657;51.204;-4.130;2023-08-08T07:03:21;16.70;99.90
49765;DHT22;35657;51.204;-4.130;2023-08-08T07:05:46;16.70;99.90
49765;DHT22;35657;51.204;-4.130;2023-08-08T07:08:17;16.70;99.90
49765;DHT22;35657;51.204;-4.130;2023-08-08T07:10:43;16.80;99.90
49765;DHT22;35657;51.204;-4.130;2023-08-08T07:13:09;16.80;99.90
49765;DHT22;35657;51.204;-4.130;2023-08-08T07:15:34;16.80;99.90
49765;DHT22;35657;51.204;-4.130;2023-08-08T07:18:00;17.00;99.90
49765;DHT22;35657;51.204;-4.130;2023-08-08T07:20:26;17.00;99.90
49765;DHT22;35657;51.204;-4.130;2023-08-08T07:22:52;17.00;99.90
49765;DHT22;35657;51.204;-4.130;2023-08-08T07:25:18;17.00;99.90
49765;DHT22;35657;51.204;-4.130;2023-08-08T07:27:44;16.90;99.90
49765;DHT22;35657;51.204;-4.130;2023-08-08T07:30:10;17.00;99.90
49765;DHT22;35657;51.204;-4.130;2023-08-08T07:32:36;17.00;99.90
49765;DHT22;35657;51.204;-4.130;2023-08-08T07:35:02;17.00;99.90
49765;DHT22;35657;51.204;-4.130;2023-08-08T07:37:31;17.00;99.90
49765;DHT22;35657;51.204;-4.130;2023-08-08T07:39:57;16.90;99.90
49765;DHT22;35657;51.204;-4.130;2023-08-08T07:42:23;16.90;99.90
49765;DHT22;35657;51.204;-4.130;2023-08-08T07:44:49;16.90;99.90
49765;DHT22;35657;51.204;-4.130;2023-08-08T07:47:14;16.90;99.90
49765;DHT22;35657;51.204;-4.130;2023-08-08T07:49:40;16.90;99.90
49765;DHT22;35657;51.204;-4.130;2023-08-08T07:52:06;16.90;99.90
49765;DHT22;35657;51.204;-4.130;2023-08-08T07:54:33;16.90;99.90
49765;DHT22;35657;51.204;-4.130;2023-08-08T07:56:59;16.90;99.90
49765;DHT22;35657;51.204;-4.130;2023-08-08T07:59:25;16.90;99.90
49765;DHT22;35657;51.204;-4.130;2023-08-08T08:01:51;17.00;99.90
49765;DHT22;35657;51.204;-4.130;2023-08-08T08:04:17;17.00;99.90
49765;DHT22;35657;51.204;-4.130;2023-08-08T08:06:42;17.10;99.90
49765;DHT22;35657;51.204;-4.130;2023-08-08T08:09:08;17.20;99.90
49765;DHT22;35657;51.204;-4.130;2023-08-08T08:11:34;17.30;99.90
49765;DHT22;35657;51.204;-4.130;2023-08-08T08:13:59;17.30;99.90
49765;DHT22;35657;51.204;-4.130;2023-08-08T08:16:25;17.40;99.90
49765;DHT22;35657;51.204;-4.130;2023-08-08T08:18:51;17.50;99.90
49765;DHT22;35657;51.204;-4.130;2023-08-08T08:21:17;17.40;99.90
49765;DHT22;35657;51.204;-4.130;2023-08-08T08:23:43;17.10;99.90
49765;DHT22;35657;51.204;-4.130;2023-08-08T08:26:09;17.00;99.90
49765;DHT22;35657;51.204;-4.130;2023-08-08T08:28:35;16.90;99.90
49765;DHT22;35657;51.204;-4.130;2023-08-08T08:31:05;16.80;99.90
49765;DHT22;35657;51.204;-4.130;2023-08-08T08:33:31;16.80;99.90
49765;DHT22;35657;51.204;-4.130;2023-08-08T08:35:56;16.80;99.90
49765;DHT22;35657;51.204;-4.130;2023-08-08T08:38:22;16.80;99.90
49765;DHT22;35657;51.204;-4.130;2023-08-08T08:40:48;16.80;99.90
49765;DHT22;35657;51.204;-4.130;2023-08-08T08:43:15;16.80;99.90
49765;DHT22;35657;51.204;-4.130;2023-08-08T08:45:43;16.80;99.90
49765;DHT22;35657;51.204;-4.130;2023-08-08T08:48:14;16.80;99.90
49765;DHT22;35657;51.204;-4.130;2023-08-08T08:50:41;16.80;99.90
49765;DHT22;35657;51.204;-4.130;2023-08-08T08:53:07;16.80;99.90
49765;DHT22;35657;51.204;-4.130;2023-08-08T08:55:33;16.80;99.90
49765;DHT22;35657;51.204;-4.130;2023-08-08T08:57:59;16.80;99.90
49765;DHT22;35657;51.204;-4.130;2023-08-08T09:00:25;16.80;99.90
49765;DHT22;35657;51.204;-4.130;2023-08-08T09:02:52;16.80;99.90
49765;DHT22;35657;51.204;-4.130;2023-08-08T09:05:18;16.90;99.90
49765;DHT22;35657;51.204;-4.130;2023-08-08T09:07:47;16.90;99.90
49765;DHT22;35657;51.204;-4.130;2023-08-08T09:10:15;16.90;99.90
49765;DHT22;35657;51.204;-4.130;2023-08-08T09:12:41;16.90;99.90
49765;DHT22;35657;51.204;-4.130;2023-08-08T09:15:07;16.90;99.90
49765;DHT22;35657;51.204;-4.130;2023-08-08T09:17:34;17.00;99.90
49765;DHT22;35657;51.204;-4.130;2023-08-08T09:20:00;17.00;99.90
49765;DHT22;35657;51.204;-4.130;2023-08-08T09:22:26;17.00;99.90
49765;DHT22;35657;51.204;-4.130;2023-08-08T09:24:53;17.00;99.90
49765;DHT22;35657;51.204;-4.130;2023-08-08T09:27:18;17.00;99.90
49765;DHT22;35657;51.204;-4.130;2023-08-08T09:29:44;17.00;99.90
49765;DHT22;35657;51.204;-4.130;2023-08-08T09:32:10;17.10;99.90
49765;DHT22;35657;51.204;-4.130;2023-08-08T09:34:41;17.10;99.90
49765;DHT22;35657;51.204;-4.130;2023-08-08T09:37:08;17.10;99.90
49765;DHT22;35657;51.204;-4.130;2023-08-08T09:39:36;17.30;99.90
49765;DHT22;35657;51.204;-4.130;2023-08-08T09:42:02;17.40;99.90
49765;DHT22;35657;51.204;-4.130;2023-08-08T09:44:29;17.40;99.90
49765;DHT22;35657;51.204;-4.130;2023-08-08T09:46:57;17.50;99.90
49765;DHT22;35657;51.204;-4.130;2023-08-08T09:49:23;17.50;99.90
49765;DHT22;35657;51.204;-4.130;2023-08-08T09:51:52;17.50;99.90
49765;DHT22;35657;51.204;-4.130;2023-08-08T09:54:18;17.50;99.90
49765;DHT22;35657;51.204;-4.130;2023-08-08T09:56:45;17.50;99.90
49765;DHT22;35657;51.204;-4.130;2023-08-08T09:59:11;17.60;99.90
49765;DHT22;35657;51.204;-4.130;2023-08-08T10:01:40;17.60;99.90
49765;DHT22;35657;51.204;-4.130;2023-08-08T10:04:07;17.60;99.90
49765;DHT22;35657;51.204;-4.130;2023-08-08T10:06:33;17.70;99.90
49765;DHT22;35657;51.204;-4.130;2023-08-08T10:09:01;17.80;99.90
49765;DHT22;35657;51.204;-4.130;2023-08-08T10:11:27;17.80;99.90
49765;DHT22;35657;51.204;-4.130;2023-08-08T10:13:54;17.90;99.90
49765;DHT22;35657;51.204;-4.130;2023-08-08T10:16:22;18.00;99.90
49765;DHT22;35657;51.204;-4.130;2023-08-08T10:19:02;18.00;99.90
49765;DHT22;35657;51.204;-4.130;2023-08-08T10:21:35;18.00;99.90
49765;DHT22;35657;51.204;-4.130;2023-08-08T10:24:07;18.10;99.90
49765;DHT22;35657;51.204;-4.130;2023-08-08T10:26:33;18.10;99.90
49765;DHT22;35657;51.204;-4.130;2023-08-08T10:29:00;18.20;99.90
49765;DHT22;35657;51.204;-4.130;2023-08-08T10:31:27;18.20;99.90
49765;DHT22;35657;51.204;-4.130;2023-08-08T10:34:05;18.20;99.90
49765;DHT22;35657;51.204;-4.130;2023-08-08T10:36:51;18.20;99.90
49765;DHT22;35657;51.204;-4.130;2023-08-08T10:39:20;18.20;99.90
49765;DHT22;35657;51.204;-4.130;2023-08-08T10:41:48;18.20;99.90
49765;DHT22;35657;51.204;-4.130;2023-08-08T10:44:21;18.20;99.90
49765;DHT22;35657;51.204;-4.130;2023-08-08T10:46:48;18.30;99.90
49765;DHT22;35657;51.204;-4.130;2023-08-08T10:49:17;18.30;99.90
49765;DHT22;35657;51.204;-4.130;2023-08-08T10:51:43;18.30;99.90
49765;DHT22;35657;51.204;-4.130;2023-08-08T10:54:18;18.30;99.90
49765;DHT22;35657;51.204;-4.130;2023-08-08T10:56:52;18.30;99.90
49765;DHT22;35657;51.204;-4.130;2023-08-08T10:59:20;18.40;99.90
49765;DHT22;35657;51.204;-4.130;2023-08-08T11:01:47;18.50;99.90
49765;DHT22;35657;51.204;-4.130;2023-08-08T11:04:15;18.60;99.90
49765;DHT22;35657;51.204;-4.130;2023-08-08T11:06:41;18.60;99.90
49765;DHT22;35657;51.204;-4.130;2023-08-08T11:09:08;18.70;99.90
49765;DHT22;35657;51.204;-4.130;2023-08-08T11:11:40;18.70;99.90
49765;DHT22;35657;51.204;-4.130;2023-08-08T11:16:41;18.60;99.90
49765;DHT22;35657;51.204;-4.130;2023-08-08T11:19:07;18.60;99.90
49765;DHT22;35657;51.204;-4.130;2023-08-08T11:21:37;18.60;99.90
49765;DHT22;35657;51.204;-4.130;2023-08-08T11:24:05;18.60;99.90
49765;DHT22;35657;51.204;-4.130;2023-08-08T11:26:35;18.60;99.90
49765;DHT22;35657;51.204;-4.130;2023-08-08T11:29:03;18.60;99.90
49765;DHT22;35657;51.204;-4.130;2023-08-08T11:31:29;18.60;99.90
49765;DHT22;35657;51.204;-4.130;2023-08-08T11:33:56;18.60;99.90
49765;DHT22;35657;51.204;-4.130;2023-08-08T11:36:23;18.60;99.90
49765;DHT22;35657;51.204;-4.130;2023-08-08T11:38:50;18.60;99.90
49765;DHT22;35657;51.204;-4.130;2023-08-08T11:41:20;18.60;99.90
49765;DHT22;35657;51.204;-4.130;2023-08-08T11:43:46;18.60;99.90
49765;DHT22;35657;51.204;-4.130;2023-08-08T11:46:13;18.70;99.90
49765;DHT22;35657;51.204;-4.130;2023-08-08T11:48:39;18.70;99.90
49765;DHT22;35657;51.204;-4.130;2023-08-08T11:51:06;18.80;99.90
49765;DHT22;35657;51.204;-4.130;2023-08-08T11:53:33;18.80;99.90
49765;DHT22;35657;51.204;-4.130;2023-08-08T11:56:02;18.90;99.90
49765;DHT22;35657;51.204;-4.130;2023-08-08T11:58:29;18.80;99.90
49765;DHT22;35657;51.204;-4.130;2023-08-08T12:00:56;18.70;99.90
49765;DHT22;35657;51.204;-4.130;2023-08-08T12:03:24;18.70;99.90
49765;DHT22;35657;51.204;-4.130;2023-08-08T12:05:51;18.60;99.90
49765;DHT22;35657;51.204;-4.130;2023-08-08T12:08:21;18.60;99.90
49765;DHT22;35657;51.204;-4.130;2023-08-08T12:10:50;18.50;99.90
49765;DHT22;35657;51.204;-4.130;2023-08-08T12:13:22;18.50;99.90
49765;DHT22;35657;51.204;-4.130;2023-08-08T12:15:49;18.50;99.90
49765;DHT22;35657;51.204;-4.130;2023-08-08T12:18:18;18.50;99.90
49765;DHT22;35657;51.204;-4.130;2023-08-08T12:20:44;18.50;99.90
49765;DHT22;35657;51.204;-4.130;2023-08-08T12:23:10;18.40;99.90
49765;DHT22;35657;51.204;-4.130;2023-08-08T12:25:36;18.50;99.90
49765;DHT22;35657;51.204;-4.130;2023-08-08T12:28:02;18.60;99.90
49765;DHT22;35657;51.204;-4.130;2023-08-08T12:30:28;18.70;99.90
49765;DHT22;35657;51.204;-4.130;2023-08-08T12:32:54;18.70;99.90
49765;DHT22;35657;51.204;-4.130;2023-08-08T12:35:20;18.70;99.90
49765;DHT22;35657;51.204;-4.130;2023-08-08T12:37:46;18.70;99.90
49765;DHT22;35657;51.204;-4.130;2023-08-08T12:40:12;18.60;99.90
49765;DHT22;35657;51.204;-4.130;2023-08-08T12:42:38;18.50;99.90
49765;DHT22;35657;51.204;-4.130;2023-08-08T12:45:06;18.50;99.90
49765;DHT22;35657;51.204;-4.130;2023-08-08T12:47:33;18.50;99.90
49765;DHT22;35657;51.204;-4.130;2023-08-08T12:50:05;18.50;99.90
49765;DHT22;35657;51.204;-4.130;2023-08-08T12:52:31;18.60;99.90
49765;DHT22;35657;51.204;-4.130;2023-08-08T12:54:57;18.60;99.90
49765;DHT22;35657;51.204;-4.130;2023-08-08T12:57:22;18.60;99.90
49765;DHT22;35657;51.204;-4.130;2023-08-08T12:59:48;18.60;99.90
49765;DHT22;35657;51.204;-4.130;2023-08-08T13:02:14;18.60;99.90
49765;DHT22;35657;51.204;-4.130;2023-08-08T13:04:40;18.60;99.90
49765;DHT22;35657;51.204;-4.130;2023-08-08T13:07:06;18.60;99.90
49765;DHT22;35657;51.204;-4.130;2023-08-08T13:09:32;18.60;99.90
49765;DHT22;35657;51.204;-4.130;2023-08-08T13:11:58;18.60;99.90
49765;DHT22;35657;51.204;-4.130;2023-08-08T13:14:24;18.70;99.90
49765;DHT22;35657;51.204;-4.130;2023-08-08T13:16:50;18.70;99.90
49765;DHT22;35657;51.204;-4.130;2023-08-08T13:19:16;18.80;99.90
49765;DHT22;35657;51.204;-4.130;2023-08-08T13:21:45;18.90;99.90
49765;DHT22;35657;51.204;-4.130;2023-08-08T13:24:10;18.90;99.90
49765;DHT22;35657;51.204;-4.130;2023-08-08T13:26:39;18.80;99.90
49765;DHT22;35657;51.204;-4.130;2023-08-08T13:29:04;18.80;99.90
49765;DHT22;35657;51.204;-4.130;2023-08-08T13:31:30;18.70;99.90
49765;DHT22;35657;51.204;-4.130;2023-08-08T13:33:56;18.70;99.90
49765;DHT22;35657;51.204;-4.130;2023-08-08T13:36:21;18.70;99.90
49765;DHT22;35657;51.204;-4.130;2023-08-08T13:38:47;18.70;99.90
49765;DHT22;35657;51.204;-4.130;2023-08-08T13:41:13;18.70;99.90
49765;DHT22;35657;51.204;-4.130;2023-08-08T13:43:39;18.70;99.90
49765;DHT22;35657;51.204;-4.130;2023-08-08T13:46:04;18.70;99.90
49765;DHT22;35657;51.204;-4.130;2023-08-08T13:48:33;18.70;99.90
49765;DHT22;35657;51.204;-4.130;2023-08-08T13:51:00;18.60;99.90
49765;DHT22;35657;51.204;-4.130;2023-08-08T13:53:25;18.60;99.90
49765;DHT22;35657;51.204;-4.130;2023-08-08T13:55:51;18.60;99.90
49765;DHT22;35657;51.204;-4.130;2023-08-08T13:58:17;18.60;99.90
49765;DHT22;35657;51.204;-4.130;2023-08-08T14:00:43;18.70;99.90
49765;DHT22;35657;51.204;-4.130;2023-08-08T14:03:08;18.70;99.90
49765;DHT22;35657;51.204;-4.130;2023-08-08T14:05:34;18.70;99.90
49765;DHT22;35657;51.204;-4.130;2023-08-08T14:08:02;18.80;99.90
49765;DHT22;35657;51.204;-4.130;2023-08-08T14:10:28;18.70;99.90
49765;DHT22;35657;51.204;-4.130;2023-08-08T14:12:54;18.60;99.90
49765;DHT22;35657;51.204;-4.130;2023-08-08T14:15:20;18.50;99.90
49765;DHT22;35657;51.204;-4.130;2023-08-08T14:17:45;18.50;99.90
49765;DHT22;35657;51.204;-4.130;2023-08-08T14:20:11;18.50;99.90
49765;DHT22;35657;51.204;-4.130;2023-08-08T14:22:37;18.40;99.90
49765;DHT22;35657;51.204;-4.130;2023-08-08T14:25:03;18.50;99.90
49765;DHT22;35657;51.204;-4.130;2023-08-08T14:27:31;18.50;99.90
49765;DHT22;35657;51.204;-4.130;2023-08-08T14:29:57;18.50;99.90
49765;DHT22;35657;51.204;-4.130;2023-08-08T14:32:23;18.50;99.90
49765;DHT22;35657;51.204;-4.130;2023-08-08T14:34:49;18.50;99.90
49765;DHT22;35657;51.204;-4.130;2023-08-08T14:37:14;18.50;99.90
49765;DHT22;35657;51.204;-4.130;2023-08-08T14:39:40;18.60;99.90
49765;DHT22;35657;51.204;-4.130;2023-08-08T14:42:06;18.70;99.90
49765;DHT22;35657;51.204;-4.130;2023-08-08T14:44:32;18.80;99.90
49765;DHT22;35657;51.204;-4.130;2023-08-08T14:46:57;18.90;99.90
49765;DHT22;35657;51.204;-4.130;2023-08-08T14:49:23;19.00;99.90
49765;DHT22;35657;51.204;-4.130;2023-08-08T14:51:51;19.00;99.90
49765;DHT22;35657;51.204;-4.130;2023-08-08T14:54:17;18.90;99.90
49765;DHT22;35657;51.204;-4.130;2023-08-08T14:56:42;18.90;99.90
49765;DHT22;35657;51.204;-4.130;2023-08-08T14:59:08;18.80;99.90
49765;DHT22;35657;51.204;-4.130;2023-08-08T15:01:34;18.80;99.90
49765;DHT22;35657;51.204;-4.130;2023-08-08T15:04:00;18.80;99.90
49765;DHT22;35657;51.204;-4.130;2023-08-08T15:06:25;18.80;99.90
49765;DHT22;35657;51.204;-4.130;2023-08-08T15:08:51;18.90;99.90
49765;DHT22;35657;51.204;-4.130;2023-08-08T15:11:17;18.90;99.90
49765;DHT22;35657;51.204;-4.130;2023-08-08T15:13:43;18.90;99.90